Jill Reinauer — WCW9655 — position and weather

sailwx.info

Track history (hours):
 
Tides and Currents Weather Stations Pressure Air Temp Water Temp Dewpoint Dewpoint Depression Visibility Wind Speed Wind Dir Waves Ship Positions

Jill Reinauer

Owner: REINAUER TRANSPORTATION CO.,LLC., STATEN ISLAND, NY. More information available from US FCC via Universal Licensing System and Coast Guard Vessel Documentation Center.

Last reported at 2017-Nov-19 11:24 UTC. Time now 2017-Nov-20 00:26 UTC.
Position N 40°32' W 074°15'.

Length 30 m; draft 4 m.

Type: Tug. MMSI: 366727190.

Date/timePositionNaut miles runAvg speedWind from/ knotsBaromVisibWave heightAir tempDewpointWater temp
2017-Nov-19 11:24N 40°32' W 074°15'1 1.3
2017-Nov-19 10:33N 40°33' W 074°14'0 4.7
2017-Nov-19 10:28N 40°33' W 074°15'1 0.3
2017-Nov-19 08:38N 40°33' W 074°15'0 0.0
2017-Nov-19 08:08N 40°33' W 074°15'0 0.3
2017-Nov-19 07:59N 40°33' W 074°15'2 3.0
2017-Nov-19 07:23N 40°33' W 074°13'2 5.7
2017-Nov-19 06:58N 40°36' W 074°12'0 0.0
2017-Nov-19 06:30N 40°36' W 074°12'0 0.0
2017-Nov-19 06:00N 40°36' W 074°12'0 0.0
2017-Nov-19 05:30N 40°36' W 074°12'0 0.0
2017-Nov-19 04:59N 40°36' W 074°12'0 0.0
2017-Nov-19 02:51N 40°36' W 074°12'0 0.0
2017-Nov-19 02:26N 40°36' W 074°12'0 0.0
2017-Nov-19 01:30N 40°36' W 074°12'0 0.5
2017-Nov-19 01:00N 40°35' W 074°12'0 0.9
2017-Nov-19 00:29N 40°36' W 074°12'0 0.4
2017-Nov-18 23:59N 40°36' W 074°12'0 0.0
2017-Nov-18 23:30N 40°36' W 074°12'0 0.0
2017-Nov-18 22:29N 40°36' W 074°12'0 0.1
2017-Nov-18 21:58N 40°36' W 074°12'4 8.7
2017-Nov-18 21:30N 40°32' W 074°15'0 0.0
2017-Nov-18 16:55N 40°32' W 074°15'0 0.0
2017-Nov-18 16:26N 40°32' W 074°15'0 0.0
2017-Nov-18 13:37N 40°32' W 074°15'0 0.1
2017-Nov-18 13:30N 40°32' W 074°15'0 0.0
2017-Nov-18 12:56N 40°32' W 074°15'0 0.0
2017-Nov-18 12:28N 40°32' W 074°15'0 0.0
2017-Nov-18 11:59N 40°32' W 074°15'0 0.0
2017-Nov-18 08:17N 40°32' W 074°15'0 0.0
2017-Nov-18 07:55N 40°32' W 074°15'0 0.0
2017-Nov-18 07:30N 40°32' W 074°15'0 0.0
2017-Nov-18 03:06N 40°32' W 074°15'0 3.7
2017-Nov-18 03:00N 40°33' W 074°15'1 1.0
2017-Nov-18 02:30N 40°32' W 074°15'0 0.0
2017-Nov-18 02:00N 40°32' W 074°15'1 0.2
2017-Nov-17 20:50N 40°33' W 074°15'2 6.8
2017-Nov-17 20:28N 40°35' W 074°13'1 1.4
2017-Nov-17 20:00N 40°36' W 074°12'0 0.0
2017-Nov-17 19:30N 40°36' W 074°12'0 0.0
2017-Nov-17 19:00N 40°36' W 074°12'0 0.0
2017-Nov-17 18:30N 40°36' W 074°12'0 0.4
2017-Nov-17 18:00N 40°36' W 074°12'3 5.3
2017-Nov-17 17:30N 40°33' W 074°14'0 0.0
2017-Nov-17 17:00N 40°33' W 074°14'0 0.0
2017-Nov-17 16:28N 40°33' W 074°14'0 0.0
2017-Nov-17 16:00N 40°33' W 074°14'0 0.0
2017-Nov-17 15:28N 40°33' W 074°14'1 2.0
2017-Nov-17 14:59N 40°33' W 074°13'2 1.5
2017-Nov-17 13:29N 40°36' W 074°12'0 0.0
2017-Nov-17 12:55N 40°36' W 074°12'0 0.0
2017-Nov-17 12:29N 40°36' W 074°12'0 0.0
2017-Nov-17 11:58N 40°36' W 074°12'0 0.0
2017-Nov-17 11:30N 40°36' W 074°12'0 0.0
2017-Nov-17 11:00N 40°36' W 074°12'0 0.0
2017-Nov-17 10:29N 40°36' W 074°12'0 0.0
2017-Nov-17 09:59N 40°36' W 074°12'0 0.0
2017-Nov-17 09:30N 40°36' W 074°12'0 0.0
2017-Nov-17 09:00N 40°36' W 074°12'0 0.4
2017-Nov-17 08:30N 40°36' W 074°12'0 0.4
2017-Nov-17 08:00N 40°36' W 074°12'0 0.9
2017-Nov-17 07:30N 40°36' W 074°12'4 7.7
2017-Nov-17 07:00N 40°39' W 074°08'0 0.7
2017-Nov-17 06:31N 40°38' W 074°08'0 0.0
2017-Nov-17 06:01N 40°38' W 074°08'0 0.1
2017-Nov-17 05:30N 40°38' W 074°08'0 0.1
2017-Nov-17 05:00N 40°38' W 074°08'0 0.0
2017-Nov-17 04:30N 40°38' W 074°08'0 0.0
2017-Nov-17 04:00N 40°38' W 074°08'3 5.9
2017-Nov-17 03:30N 40°40' W 074°04'2 4.9
2017-Nov-17 03:01N 40°40' W 074°01'0 0.1
2017-Nov-17 02:31N 40°40' W 074°01'3 5.6
2017-Nov-17 02:01N 40°43' W 074°01'4 8.5
2017-Nov-17 01:30N 40°47' W 073°60'4 7.8
2017-Nov-17 01:00N 40°51' W 073°57'4 7.5
2017-Nov-17 00:30N 40°54' W 073°55'4 8.0
2017-Nov-17 00:01N 40°58' W 073°54'  
2017-Nov-14 09:13N 40°57' W 073°54'2 7.2
2017-Nov-14 09:00N 40°56' W 073°55'3 6.9
2017-Nov-14 08:30N 40°53' W 073°56'3 6.7
2017-Nov-14 08:00N 40°50' W 073°58'3 6.1
2017-Nov-14 07:30N 40°47' W 073°60'3 5.5
2017-Nov-14 07:00N 40°44' W 074°01'2 4.9
2017-Nov-14 06:30N 40°42' W 074°02'3 5.0
2017-Nov-14 06:00N 40°40' W 074°03'3 5.2
2017-Nov-14 05:30N 40°39' W 074°06'3 5.6
2017-Nov-14 05:00N 40°39' W 074°10'3 5.0
2017-Nov-14 04:30N 40°37' W 074°12'3 5.5
2017-Nov-14 04:00N 40°34' W 074°13'2 4.6
2017-Nov-14 03:29N 40°33' W 074°15'0 0.7
2017-Nov-14 03:00N 40°33' W 074°15'0 0.2
2017-Nov-14 02:30N 40°33' W 074°15'0 0.0
2017-Nov-14 02:00N 40°33' W 074°15'0 0.0
2017-Nov-14 01:30N 40°33' W 074°15'0 0.0
2017-Nov-14 01:00N 40°33' W 074°15'0 0.0
2017-Nov-14 00:29N 40°33' W 074°15'0 0.0
2017-Nov-14 00:00N 40°33' W 074°15'0 0.0
2017-Nov-13 23:30N 40°33' W 074°15'0 0.0
2017-Nov-13 23:00N 40°33' W 074°15'0 0.0
2017-Nov-13 22:30N 40°33' W 074°15'0 0.0
2017-Nov-13 22:00N 40°33' W 074°15'4 0.2
2017-Nov-13 02:00N 40°36' W 074°12'0 0.0
2017-Nov-13 01:30N 40°36' W 074°12'0 0.0
2017-Nov-13 01:00N 40°36' W 074°12'0 0.0
2017-Nov-13 00:30N 40°36' W 074°12'0 0.0
2017-Nov-13 00:00N 40°36' W 074°12'0 0.0
2017-Nov-12 23:30N 40°36' W 074°12'0 0.0
2017-Nov-12 23:00N 40°36' W 074°12'0 0.0
2017-Nov-12 22:30N 40°36' W 074°12'0 0.0
2017-Nov-12 22:00N 40°36' W 074°12'0 0.0
2017-Nov-12 21:30N 40°36' W 074°12'0 0.0
2017-Nov-12 21:00N 40°36' W 074°12'0 0.0
2017-Nov-12 20:29N 40°36' W 074°12'0 0.0
2017-Nov-12 20:00N 40°36' W 074°12'1 1.3
2017-Nov-12 19:30N 40°36' W 074°12'0 0.1
2017-Nov-12 19:00N 40°36' W 074°12'0 0.0
2017-Nov-12 18:30N 40°36' W 074°12'0 0.0
2017-Nov-12 18:00N 40°36' W 074°12'0 0.2
2017-Nov-12 17:30N 40°36' W 074°12'1 1.2
2017-Nov-12 16:59N 40°36' W 074°12'0 0.0
2017-Nov-12 16:30N 40°36' W 074°12'0 0.0
2017-Nov-12 16:00N 40°36' W 074°12'0 0.0
2017-Nov-12 15:30N 40°36' W 074°12'0 0.0
2017-Nov-12 15:00N 40°36' W 074°12'0 0.0
2017-Nov-12 14:30N 40°36' W 074°12'0 0.0
2017-Nov-12 14:00N 40°36' W 074°12'0 0.0
2017-Nov-12 13:30N 40°36' W 074°12'0 0.0
2017-Nov-12 13:00N 40°36' W 074°12'0 0.0
2017-Nov-12 12:30N 40°36' W 074°12'0 0.0
2017-Nov-12 12:00N 40°36' W 074°12'0 0.0
2017-Nov-12 11:30N 40°36' W 074°12'0 0.0
2017-Nov-12 11:00N 40°36' W 074°12'0 0.0
2017-Nov-12 10:30N 40°36' W 074°12'0 0.0
2017-Nov-12 10:00N 40°36' W 074°12'0 0.0
2017-Nov-12 09:30N 40°36' W 074°12'2 4.3
2017-Nov-12 08:59N 40°38' W 074°12'4 8.4
2017-Nov-12 08:30N 40°39' W 074°07'0 0.7
2017-Nov-12 08:00N 40°39' W 074°07'2 3.2
2017-Nov-12 07:30N 40°39' W 074°04'3 5.5
2017-Nov-12 07:01N 40°40' W 074°01'0 0.0
2017-Nov-12 06:30N 40°40' W 074°01'0 0.0
2017-Nov-12 06:00N 40°40' W 074°01'0 0.0
2017-Nov-12 05:30N 40°40' W 074°01'0 0.0
2017-Nov-12 05:00N 40°40' W 074°01'0 0.0
2017-Nov-12 04:30N 40°40' W 074°01'0 0.0
2017-Nov-12 04:00N 40°40' W 074°01'0 0.0
2017-Nov-12 03:30N 40°40' W 074°01'3 5.5
2017-Nov-12 03:00N 40°39' W 074°05'3 5.2
2017-Nov-12 02:30N 40°38' W 074°08'0 0.2
2017-Nov-12 02:00N 40°39' W 074°08'0 0.2
2017-Nov-12 01:30N 40°38' W 074°08'0 0.0
2017-Nov-12 01:00N 40°38' W 074°08'0 0.0
2017-Nov-12 00:30N 40°38' W 074°08'0 0.0
2017-Nov-12 00:00N 40°38' W 074°08'0 0.0
2017-Nov-11 23:30N 40°38' W 074°08'0 0.0
2017-Nov-11 23:00N 40°38' W 074°08'0 0.0
2017-Nov-11 22:30N 40°38' W 074°08'0 0.0
2017-Nov-11 22:00N 40°38' W 074°08'0 0.0
2017-Nov-11 21:30N 40°38' W 074°08'0 0.0
2017-Nov-11 20:59N 40°38' W 074°08'3 5.4
2017-Nov-11 20:30N 40°41' W 074°08'1 2.9
2017-Nov-11 20:00N 40°42' W 074°07'0 0.8
2017-Nov-11 19:30N 40°43' W 074°07'3 6.6
2017-Nov-11 19:00N 40°40' W 074°09'1 2.7
2017-Nov-11 18:30N 40°38' W 074°08'0 0.0
2017-Nov-11 18:00N 40°38' W 074°08'0 0.0
2017-Nov-11 17:30N 40°38' W 074°08'0 0.0
2017-Nov-11 17:00N 40°38' W 074°08'0 0.0
2017-Nov-11 16:30N 40°38' W 074°08'1 2.8
2017-Nov-11 16:00N 40°40' W 074°09'3 6.2
2017-Nov-11 15:30N 40°42' W 074°07'2 3.6
2017-Nov-11 15:00N 40°41' W 074°08'2 4.4
2017-Nov-11 14:30N 40°39' W 074°09'1 1.8
2017-Nov-11 14:00N 40°38' W 074°08'0 0.0
2017-Nov-11 13:30N 40°38' W 074°08'0 0.0
2017-Nov-11 13:00N 40°38' W 074°08'0 0.0
2017-Nov-11 12:20N 40°38' W 074°08'0 0.0
2017-Nov-11 12:00N 40°38' W 074°08'0 0.0
2017-Nov-11 11:30N 40°38' W 074°08'0 0.0
2017-Nov-11 11:00N 40°38' W 074°08'0 0.0
2017-Nov-11 10:30N 40°38' W 074°08'0 0.0
2017-Nov-11 10:00N 40°38' W 074°08'0 0.0
2017-Nov-11 09:30N 40°38' W 074°08'0 0.0
2017-Nov-11 09:00N 40°38' W 074°08'0 0.1
2017-Nov-11 08:30N 40°38' W 074°08'0 0.0
2017-Nov-11 08:00N 40°38' W 074°08'0 0.0
2017-Nov-11 07:30N 40°38' W 074°08'0 0.0
2017-Nov-11 07:00N 40°38' W 074°08'1 1.2
2017-Nov-11 06:30N 40°39' W 074°08'4 7.3
2017-Nov-11 06:00N 40°42' W 074°07'1 2.0
2017-Nov-11 05:30N 40°43' W 074°07'0 0.2
2017-Nov-11 05:00N 40°43' W 074°07'1 2.9
2017-Nov-11 04:30N 40°41' W 074°07'3 5.7
2017-Nov-11 04:00N 40°39' W 074°08'0 0.6
2017-Nov-11 03:30N 40°38' W 074°08'0 0.0
2017-Nov-11 03:00N 40°38' W 074°08'0 0.0
2017-Nov-11 02:30N 40°38' W 074°08'0 0.3
2017-Nov-11 01:59N 40°39' W 074°08'1 1.1
2017-Nov-11 01:30N 40°39' W 074°07'0 0.0
2017-Nov-11 01:00N 40°39' W 074°07'0 0.7
2017-Nov-11 00:31N 40°39' W 074°07'0 0.7
2017-Nov-11 00:00N 40°39' W 074°07'0 0.0
2017-Nov-10 23:30N 40°39' W 074°07'0 0.1
2017-Nov-10 23:00N 40°39' W 074°07'1 1.3
2017-Nov-10 22:30N 40°38' W 074°08'0 0.2
2017-Nov-10 22:00N 40°38' W 074°08'0 0.0
2017-Nov-10 21:30N 40°38' W 074°08'0 0.0
2017-Nov-10 21:00N 40°38' W 074°08'0 0.0
2017-Nov-10 20:30N 40°38' W 074°08'0 0.0
2017-Nov-10 20:00N 40°38' W 074°08'0 0.0
2017-Nov-10 19:30N 40°38' W 074°08'0 0.0
2017-Nov-10 19:00N 40°38' W 074°08'0 0.0
2017-Nov-10 18:30N 40°38' W 074°08'3 5.3
2017-Nov-10 18:00N 40°39' W 074°11'3 6.2
2017-Nov-10 17:30N 40°36' W 074°12'0 0.0
2017-Nov-10 17:00N 40°36' W 074°12'0 0.0
2017-Nov-10 16:30N 40°36' W 074°12'0 0.0
2017-Nov-10 16:00N 40°36' W 074°12'0 0.0
2017-Nov-10 15:30N 40°36' W 074°12'0 0.0
2017-Nov-10 15:00N 40°36' W 074°12'0 0.0
2017-Nov-10 14:30N 40°36' W 074°12'0 0.0
2017-Nov-10 14:00N 40°36' W 074°12'0 0.0
2017-Nov-10 13:30N 40°36' W 074°12'0 0.0
2017-Nov-10 13:00N 40°36' W 074°12'0 0.0
2017-Nov-10 12:30N 40°36' W 074°12'0 0.0
2017-Nov-10 12:00N 40°36' W 074°12'0 0.0
2017-Nov-10 11:30N 40°36' W 074°12'0 0.0
2017-Nov-10 11:00N 40°36' W 074°12'0 0.0
2017-Nov-10 10:30N 40°36' W 074°12'0 0.0
2017-Nov-10 10:00N 40°36' W 074°12'0 0.0
2017-Nov-10 09:30N 40°36' W 074°12'0 0.0
2017-Nov-10 08:59N 40°36' W 074°12'0 0.0
2017-Nov-10 08:30N 40°36' W 074°12'0 0.0
2017-Nov-10 07:59N 40°36' W 074°12'1 2.0
2017-Nov-10 07:28N 40°37' W 074°12'1 0.2
2017-Nov-10 02:41N 40°38' W 074°12'0 1.3
2017-Nov-10 02:30N 40°38' W 074°12'4 7.7
2017-Nov-10 02:00N 40°39' W 074°07'0 0.0
2017-Nov-10 01:30N 40°39' W 074°07'0 0.0
2017-Nov-10 01:00N 40°39' W 074°07'0 0.0
2017-Nov-10 00:30N 40°39' W 074°07'0 0.1
2017-Nov-10 00:00N 40°39' W 074°07'0 0.0
2017-Nov-09 23:30N 40°39' W 074°07'0 0.0
2017-Nov-09 23:00N 40°39' W 074°07'4 8.1
2017-Nov-09 22:30N 40°38' W 074°12'2 3.6
2017-Nov-09 22:00N 40°36' W 074°12'0 0.0
2017-Nov-09 21:30N 40°36' W 074°12'0 0.0
2017-Nov-09 21:00N 40°36' W 074°12'0 0.0
2017-Nov-09 20:30N 40°36' W 074°12'0 0.0
2017-Nov-09 20:00N 40°36' W 074°12'0 0.0
2017-Nov-09 19:01N 40°36' W 074°12'0 0.1
2017-Nov-09 18:59N 40°36' W 074°12'0 0.0
2017-Nov-09 18:27N 40°36' W 074°12'0 0.0
2017-Nov-09 18:00N 40°36' W 074°12'0 0.0
2017-Nov-09 17:27N 40°36' W 074°12'0 0.0
2017-Nov-09 17:00N 40°36' W 074°12'0 0.0
2017-Nov-09 16:30N 40°36' W 074°12'0 0.0
2017-Nov-09 15:57N 40°36' W 074°12'0 0.0
2017-Nov-09 15:28N 40°36' W 074°12'0 0.0
2017-Nov-09 15:00N 40°36' W 074°12'0 0.0
2017-Nov-09 14:30N 40°36' W 074°12'0 0.0
2017-Nov-09 13:59N 40°36' W 074°12'0 0.0
2017-Nov-09 13:28N 40°36' W 074°12'0 0.0
2017-Nov-09 13:00N 40°36' W 074°12'0 0.0
2017-Nov-09 12:30N 40°36' W 074°12'0 0.0
2017-Nov-09 12:00N 40°36' W 074°12'0 0.0
2017-Nov-09 11:30N 40°36' W 074°12'  
Track history (hours):
 
Tides and Currents Weather Stations Pressure Air Temp Water Temp Dewpoint Dewpoint Depression Visibility Wind Speed Wind Dir Waves Ship Positions

Jill Reinauer

Owner: REINAUER TRANSPORTATION CO.,LLC., STATEN ISLAND, NY. More information available from US FCC via Universal Licensing System and Coast Guard Vessel Documentation Center.

Last reported at 2017-Nov-19 11:24 UTC. Time now 2017-Nov-20 00:26 UTC.
Position N 40°32' W 074°15'.

Length 30 m; draft 4 m.

Type: Tug. MMSI: 366727190.

Date/timePositionNaut miles runAvg speedWind from/ knotsBaromVisibWave heightAir tempDewpointWater temp
2017-Nov-19 11:24N 40°32' W 074°15'1 1.3
2017-Nov-19 10:33N 40°33' W 074°14'0 4.7
2017-Nov-19 10:28N 40°33' W 074°15'1 0.3
2017-Nov-19 08:38N 40°33' W 074°15'0 0.0
2017-Nov-19 08:08N 40°33' W 074°15'0 0.3
2017-Nov-19 07:59N 40°33' W 074°15'2 3.0
2017-Nov-19 07:23N 40°33' W 074°13'2 5.7
2017-Nov-19 06:58N 40°36' W 074°12'0 0.0
2017-Nov-19 06:30N 40°36' W 074°12'0 0.0
2017-Nov-19 06:00N 40°36' W 074°12'0 0.0
2017-Nov-19 05:30N 40°36' W 074°12'0 0.0
2017-Nov-19 04:59N 40°36' W 074°12'0 0.0
2017-Nov-19 02:51N 40°36' W 074°12'0 0.0
2017-Nov-19 02:26N 40°36' W 074°12'0 0.0
2017-Nov-19 01:30N 40°36' W 074°12'0 0.5
2017-Nov-19 01:00N 40°35' W 074°12'0 0.9
2017-Nov-19 00:29N 40°36' W 074°12'0 0.4
2017-Nov-18 23:59N 40°36' W 074°12'0 0.0
2017-Nov-18 23:30N 40°36' W 074°12'0 0.0
2017-Nov-18 22:29N 40°36' W 074°12'0 0.1
2017-Nov-18 21:58N 40°36' W 074°12'4 8.7
2017-Nov-18 21:30N 40°32' W 074°15'0 0.0
2017-Nov-18 16:55N 40°32' W 074°15'0 0.0
2017-Nov-18 16:26N 40°32' W 074°15'0 0.0
2017-Nov-18 13:37N 40°32' W 074°15'0 0.1
2017-Nov-18 13:30N 40°32' W 074°15'0 0.0
2017-Nov-18 12:56N 40°32' W 074°15'0 0.0
2017-Nov-18 12:28N 40°32' W 074°15'0 0.0
2017-Nov-18 11:59N 40°32' W 074°15'0 0.0
2017-Nov-18 08:17N 40°32' W 074°15'0 0.0
2017-Nov-18 07:55N 40°32' W 074°15'0 0.0
2017-Nov-18 07:30N 40°32' W 074°15'0 0.0
2017-Nov-18 03:06N 40°32' W 074°15'0 3.7
2017-Nov-18 03:00N 40°33' W 074°15'1 1.0
2017-Nov-18 02:30N 40°32' W 074°15'0 0.0
2017-Nov-18 02:00N 40°32' W 074°15'1 0.2
2017-Nov-17 20:50N 40°33' W 074°15'2 6.8
2017-Nov-17 20:28N 40°35' W 074°13'1 1.4
2017-Nov-17 20:00N 40°36' W 074°12'0 0.0
2017-Nov-17 19:30N 40°36' W 074°12'0 0.0
2017-Nov-17 19:00N 40°36' W 074°12'0 0.0
2017-Nov-17 18:30N 40°36' W 074°12'0 0.4
2017-Nov-17 18:00N 40°36' W 074°12'3 5.3
2017-Nov-17 17:30N 40°33' W 074°14'0 0.0
2017-Nov-17 17:00N 40°33' W 074°14'0 0.0
2017-Nov-17 16:28N 40°33' W 074°14'0 0.0
2017-Nov-17 16:00N 40°33' W 074°14'0 0.0
2017-Nov-17 15:28N 40°33' W 074°14'1 2.0
2017-Nov-17 14:59N 40°33' W 074°13'2 1.5
2017-Nov-17 13:29N 40°36' W 074°12'0 0.0
2017-Nov-17 12:55N 40°36' W 074°12'0 0.0
2017-Nov-17 12:29N 40°36' W 074°12'0 0.0
2017-Nov-17 11:58N 40°36' W 074°12'0 0.0
2017-Nov-17 11:30N 40°36' W 074°12'0 0.0
2017-Nov-17 11:00N 40°36' W 074°12'0 0.0
2017-Nov-17 10:29N 40°36' W 074°12'0 0.0
2017-Nov-17 09:59N 40°36' W 074°12'0 0.0
2017-Nov-17 09:30N 40°36' W 074°12'0 0.0
2017-Nov-17 09:00N 40°36' W 074°12'0 0.4
2017-Nov-17 08:30N 40°36' W 074°12'0 0.4
2017-Nov-17 08:00N 40°36' W 074°12'0 0.9
2017-Nov-17 07:30N 40°36' W 074°12'4 7.7
2017-Nov-17 07:00N 40°39' W 074°08'0 0.7
2017-Nov-17 06:31N 40°38' W 074°08'0 0.0
2017-Nov-17 06:01N 40°38' W 074°08'0 0.1
2017-Nov-17 05:30N 40°38' W 074°08'0 0.1
2017-Nov-17 05:00N 40°38' W 074°08'0 0.0
2017-Nov-17 04:30N 40°38' W 074°08'0 0.0
2017-Nov-17 04:00N 40°38' W 074°08'3 5.9
2017-Nov-17 03:30N 40°40' W 074°04'2 4.9
2017-Nov-17 03:01N 40°40' W 074°01'0 0.1
2017-Nov-17 02:31N 40°40' W 074°01'3 5.6
2017-Nov-17 02:01N 40°43' W 074°01'4 8.5
2017-Nov-17 01:30N 40°47' W 073°60'4 7.8
2017-Nov-17 01:00N 40°51' W 073°57'4 7.5
2017-Nov-17 00:30N 40°54' W 073°55'4 8.0
2017-Nov-17 00:01N 40°58' W 073°54'  
2017-Nov-14 09:13N 40°57' W 073°54'2 7.2
2017-Nov-14 09:00N 40°56' W 073°55'3 6.9
2017-Nov-14 08:30N 40°53' W 073°56'3 6.7
2017-Nov-14 08:00N 40°50' W 073°58'3 6.1
2017-Nov-14 07:30N 40°47' W 073°60'3 5.5
2017-Nov-14 07:00N 40°44' W 074°01'2 4.9
2017-Nov-14 06:30N 40°42' W 074°02'3 5.0
2017-Nov-14 06:00N 40°40' W 074°03'3 5.2
2017-Nov-14 05:30N 40°39' W 074°06'3 5.6
2017-Nov-14 05:00N 40°39' W 074°10'3 5.0
2017-Nov-14 04:30N 40°37' W 074°12'3 5.5
2017-Nov-14 04:00N 40°34' W 074°13'2 4.6
2017-Nov-14 03:29N 40°33' W 074°15'0 0.7
2017-Nov-14 03:00N 40°33' W 074°15'0 0.2
2017-Nov-14 02:30N 40°33' W 074°15'0 0.0
2017-Nov-14 02:00N 40°33' W 074°15'0 0.0
2017-Nov-14 01:30N 40°33' W 074°15'0 0.0
2017-Nov-14 01:00N 40°33' W 074°15'0 0.0
2017-Nov-14 00:29N 40°33' W 074°15'0 0.0
2017-Nov-14 00:00N 40°33' W 074°15'0 0.0
2017-Nov-13 23:30N 40°33' W 074°15'0 0.0
2017-Nov-13 23:00N 40°33' W 074°15'0 0.0
2017-Nov-13 22:30N 40°33' W 074°15'0 0.0
2017-Nov-13 22:00N 40°33' W 074°15'4 0.2
2017-Nov-13 02:00N 40°36' W 074°12'0 0.0
2017-Nov-13 01:30N 40°36' W 074°12'0 0.0
2017-Nov-13 01:00N 40°36' W 074°12'0 0.0
2017-Nov-13 00:30N 40°36' W 074°12'0 0.0
2017-Nov-13 00:00N 40°36' W 074°12'0 0.0
2017-Nov-12 23:30N 40°36' W 074°12'0 0.0
2017-Nov-12 23:00N 40°36' W 074°12'0 0.0
2017-Nov-12 22:30N 40°36' W 074°12'0 0.0
2017-Nov-12 22:00N 40°36' W 074°12'0 0.0
2017-Nov-12 21:30N 40°36' W 074°12'0 0.0
2017-Nov-12 21:00N 40°36' W 074°12'0 0.0
2017-Nov-12 20:29N 40°36' W 074°12'0 0.0
2017-Nov-12 20:00N 40°36' W 074°12'1 1.3
2017-Nov-12 19:30N 40°36' W 074°12'0 0.1
2017-Nov-12 19:00N 40°36' W 074°12'0 0.0
2017-Nov-12 18:30N 40°36' W 074°12'0 0.0
2017-Nov-12 18:00N 40°36' W 074°12'0 0.2
2017-Nov-12 17:30N 40°36' W 074°12'1 1.2
2017-Nov-12 16:59N 40°36' W 074°12'0 0.0
2017-Nov-12 16:30N 40°36' W 074°12'0 0.0
2017-Nov-12 16:00N 40°36' W 074°12'0 0.0
2017-Nov-12 15:30N 40°36' W 074°12'0 0.0
2017-Nov-12 15:00N 40°36' W 074°12'0 0.0
2017-Nov-12 14:30N 40°36' W 074°12'0 0.0
2017-Nov-12 14:00N 40°36' W 074°12'0 0.0
2017-Nov-12 13:30N 40°36' W 074°12'0 0.0
2017-Nov-12 13:00N 40°36' W 074°12'0 0.0
2017-Nov-12 12:30N 40°36' W 074°12'0 0.0
2017-Nov-12 12:00N 40°36' W 074°12'0 0.0
2017-Nov-12 11:30N 40°36' W 074°12'0 0.0
2017-Nov-12 11:00N 40°36' W 074°12'0 0.0
2017-Nov-12 10:30N 40°36' W 074°12'0 0.0
2017-Nov-12 10:00N 40°36' W 074°12'0 0.0
2017-Nov-12 09:30N 40°36' W 074°12'2 4.3
2017-Nov-12 08:59N 40°38' W 074°12'4 8.4
2017-Nov-12 08:30N 40°39' W 074°07'0 0.7
2017-Nov-12 08:00N 40°39' W 074°07'2 3.2
2017-Nov-12 07:30N 40°39' W 074°04'3 5.5
2017-Nov-12 07:01N 40°40' W 074°01'0 0.0
2017-Nov-12 06:30N 40°40' W 074°01'0 0.0
2017-Nov-12 06:00N 40°40' W 074°01'0 0.0
2017-Nov-12 05:30N 40°40' W 074°01'0 0.0
2017-Nov-12 05:00N 40°40' W 074°01'0 0.0
2017-Nov-12 04:30N 40°40' W 074°01'0 0.0
2017-Nov-12 04:00N 40°40' W 074°01'0 0.0
2017-Nov-12 03:30N 40°40' W 074°01'3 5.5
2017-Nov-12 03:00N 40°39' W 074°05'3 5.2
2017-Nov-12 02:30N 40°38' W 074°08'0 0.2
2017-Nov-12 02:00N 40°39' W 074°08'0 0.2
2017-Nov-12 01:30N 40°38' W 074°08'0 0.0
2017-Nov-12 01:00N 40°38' W 074°08'0 0.0
2017-Nov-12 00:30N 40°38' W 074°08'0 0.0
2017-Nov-12 00:00N 40°38' W 074°08'0 0.0
2017-Nov-11 23:30N 40°38' W 074°08'0 0.0
2017-Nov-11 23:00N 40°38' W 074°08'0 0.0
2017-Nov-11 22:30N 40°38' W 074°08'0 0.0
2017-Nov-11 22:00N 40°38' W 074°08'0 0.0
2017-Nov-11 21:30N 40°38' W 074°08'0 0.0
2017-Nov-11 20:59N 40°38' W 074°08'3 5.4
2017-Nov-11 20:30N 40°41' W 074°08'1 2.9
2017-Nov-11 20:00N 40°42' W 074°07'0 0.8
2017-Nov-11 19:30N 40°43' W 074°07'3 6.6
2017-Nov-11 19:00N 40°40' W 074°09'1 2.7
2017-Nov-11 18:30N 40°38' W 074°08'0 0.0
2017-Nov-11 18:00N 40°38' W 074°08'0 0.0
2017-Nov-11 17:30N 40°38' W 074°08'0 0.0
2017-Nov-11 17:00N 40°38' W 074°08'0 0.0
2017-Nov-11 16:30N 40°38' W 074°08'1 2.8
2017-Nov-11 16:00N 40°40' W 074°09'3 6.2
2017-Nov-11 15:30N 40°42' W 074°07'2 3.6
2017-Nov-11 15:00N 40°41' W 074°08'2 4.4
2017-Nov-11 14:30N 40°39' W 074°09'1 1.8
2017-Nov-11 14:00N 40°38' W 074°08'0 0.0
2017-Nov-11 13:30N 40°38' W 074°08'0 0.0
2017-Nov-11 13:00N 40°38' W 074°08'0 0.0
2017-Nov-11 12:20N 40°38' W 074°08'0 0.0
2017-Nov-11 12:00N 40°38' W 074°08'0 0.0
2017-Nov-11 11:30N 40°38' W 074°08'0 0.0
2017-Nov-11 11:00N 40°38' W 074°08'0 0.0
2017-Nov-11 10:30N 40°38' W 074°08'0 0.0
2017-Nov-11 10:00N 40°38' W 074°08'0 0.0
2017-Nov-11 09:30N 40°38' W 074°08'0 0.0
2017-Nov-11 09:00N 40°38' W 074°08'0 0.1
2017-Nov-11 08:30N 40°38' W 074°08'0 0.0
2017-Nov-11 08:00N 40°38' W 074°08'0 0.0
2017-Nov-11 07:30N 40°38' W 074°08'0 0.0
2017-Nov-11 07:00N 40°38' W 074°08'1 1.2
2017-Nov-11 06:30N 40°39' W 074°08'4 7.3
2017-Nov-11 06:00N 40°42' W 074°07'1 2.0
2017-Nov-11 05:30N 40°43' W 074°07'0 0.2
2017-Nov-11 05:00N 40°43' W 074°07'1 2.9
2017-Nov-11 04:30N 40°41' W 074°07'3 5.7
2017-Nov-11 04:00N 40°39' W 074°08'0 0.6
2017-Nov-11 03:30N 40°38' W 074°08'0 0.0
2017-Nov-11 03:00N 40°38' W 074°08'0 0.0
2017-Nov-11 02:30N 40°38' W 074°08'0 0.3
2017-Nov-11 01:59N 40°39' W 074°08'1 1.1
2017-Nov-11 01:30N 40°39' W 074°07'0 0.0
2017-Nov-11 01:00N 40°39' W 074°07'0 0.7
2017-Nov-11 00:31N 40°39' W 074°07'0 0.7
2017-Nov-11 00:00N 40°39' W 074°07'0 0.0
2017-Nov-10 23:30N 40°39' W 074°07'0 0.1
2017-Nov-10 23:00N 40°39' W 074°07'1 1.3
2017-Nov-10 22:30N 40°38' W 074°08'0 0.2
2017-Nov-10 22:00N 40°38' W 074°08'0 0.0
2017-Nov-10 21:30N 40°38' W 074°08'0 0.0
2017-Nov-10 21:00N 40°38' W 074°08'0 0.0
2017-Nov-10 20:30N 40°38' W 074°08'0 0.0
2017-Nov-10 20:00N 40°38' W 074°08'0 0.0
2017-Nov-10 19:30N 40°38' W 074°08'0 0.0
2017-Nov-10 19:00N 40°38' W 074°08'0 0.0
2017-Nov-10 18:30N 40°38' W 074°08'3 5.3
2017-Nov-10 18:00N 40°39' W 074°11'3 6.2
2017-Nov-10 17:30N 40°36' W 074°12'0 0.0
2017-Nov-10 17:00N 40°36' W 074°12'0 0.0
2017-Nov-10 16:30N 40°36' W 074°12'0 0.0
2017-Nov-10 16:00N 40°36' W 074°12'0 0.0
2017-Nov-10 15:30N 40°36' W 074°12'0 0.0
2017-Nov-10 15:00N 40°36' W 074°12'0 0.0
2017-Nov-10 14:30N 40°36' W 074°12'0 0.0
2017-Nov-10 14:00N 40°36' W 074°12'0 0.0
2017-Nov-10 13:30N 40°36' W 074°12'0 0.0
2017-Nov-10 13:00N 40°36' W 074°12'0 0.0
2017-Nov-10 12:30N 40°36' W 074°12'0 0.0
2017-Nov-10 12:00N 40°36' W 074°12'0 0.0
2017-Nov-10 11:30N 40°36' W 074°12'0 0.0
2017-Nov-10 11:00N 40°36' W 074°12'0 0.0
2017-Nov-10 10:30N 40°36' W 074°12'0 0.0
2017-Nov-10 10:00N 40°36' W 074°12'0 0.0
2017-Nov-10 09:30N 40°36' W 074°12'0 0.0
2017-Nov-10 08:59N 40°36' W 074°12'0 0.0
2017-Nov-10 08:30N 40°36' W 074°12'0 0.0
2017-Nov-10 07:59N 40°36' W 074°12'1 2.0
2017-Nov-10 07:28N 40°37' W 074°12'1 0.2
2017-Nov-10 02:41N 40°38' W 074°12'0 1.3
2017-Nov-10 02:30N 40°38' W 074°12'4 7.7
2017-Nov-10 02:00N 40°39' W 074°07'0 0.0
2017-Nov-10 01:30N 40°39' W 074°07'0 0.0
2017-Nov-10 01:00N 40°39' W 074°07'0 0.0
2017-Nov-10 00:30N 40°39' W 074°07'0 0.1
2017-Nov-10 00:00N 40°39' W 074°07'0 0.0
2017-Nov-09 23:30N 40°39' W 074°07'0 0.0
2017-Nov-09 23:00N 40°39' W 074°07'4 8.1
2017-Nov-09 22:30N 40°38' W 074°12'2 3.6
2017-Nov-09 22:00N 40°36' W 074°12'0 0.0
2017-Nov-09 21:30N 40°36' W 074°12'0 0.0
2017-Nov-09 21:00N 40°36' W 074°12'0 0.0
2017-Nov-09 20:30N 40°36' W 074°12'0 0.0
2017-Nov-09 20:00N 40°36' W 074°12'0 0.0
2017-Nov-09 19:01N 40°36' W 074°12'0 0.1
2017-Nov-09 18:59N 40°36' W 074°12'0 0.0
2017-Nov-09 18:27N 40°36' W 074°12'0 0.0
2017-Nov-09 18:00N 40°36' W 074°12'0 0.0
2017-Nov-09 17:27N 40°36' W 074°12'0 0.0
2017-Nov-09 17:00N 40°36' W 074°12'0 0.0
2017-Nov-09 16:30N 40°36' W 074°12'0 0.0
2017-Nov-09 15:57N 40°36' W 074°12'0 0.0
2017-Nov-09 15:28N 40°36' W 074°12'0 0.0
2017-Nov-09 15:00N 40°36' W 074°12'0 0.0
2017-Nov-09 14:30N 40°36' W 074°12'0 0.0
2017-Nov-09 13:59N 40°36' W 074°12'0 0.0
2017-Nov-09 13:28N 40°36' W 074°12'0 0.0
2017-Nov-09 13:00N 40°36' W 074°12'0 0.0
2017-Nov-09 12:30N 40°36' W 074°12'0 0.0
2017-Nov-09 12:00N 40°36' W 074°12'0 0.0
2017-Nov-09 11:30N 40°36' W 074°12'  

Dump ship's entire track history